Terminal Aerodrome Forecast
Issued by NWS

Home | Current Version | Previous Version | Text Only | Print | Product List | Glossary On
Versions: 1 2 3 4 5 6 7 8 9 10 11 12 13 14 15 16 17 18 19 20 21 22 23
766
FTUS43 KDLH 191743
TAFHIB
TAF
KHIB 191743Z 1918/2018 18007KT 1/4SM FG OVC002
      TEMPO 1920/1921 3SM BR OVC004
     FM192100 18006KT 4SM BR SCT003
     FM200100 17005KT 3/4SM BR OVC004
     FM200300 17006KT 1/4SM FG VV002
     FM200600 17004KT 1/4SM -FZDZ FG VV002
     FM201400 15006KT 3/4SM -FZDZ BR OVC004=

USA.gov is the U.S. government's official web portal to all federal, state and local government web resources and services.